createdAt,value
2017-10-05T00:01:18.038Z,15.20
2017-10-05T00:03:45.824Z,11.53
2017-10-05T00:06:13.399Z,12.80
2017-10-05T00:08:40.954Z,16.70
2017-10-05T00:11:08.490Z,4.27
2017-10-05T00:13:36.057Z,8.20
2017-10-05T00:16:04.436Z,6.57
2017-10-05T00:18:32.295Z,8.30
2017-10-05T00:21:00.190Z,14.90
2017-10-05T00:23:27.889Z,9.03
2017-10-05T00:25:55.573Z,10.43
2017-10-05T00:28:23.117Z,6.00
2017-10-05T00:30:50.924Z,9.00
2017-10-05T00:33:29.485Z,7.00
2017-10-05T00:35:57.973Z,15.47
2017-10-05T00:38:25.695Z,9.93
2017-10-05T00:40:54.015Z,6.73
2017-10-05T00:43:22.625Z,15.33
2017-10-05T00:45:50.451Z,11.97
2017-10-05T00:48:18.251Z,12.00
2017-10-05T00:50:46.571Z,11.30
2017-10-05T00:53:25.009Z,8.07
2017-10-05T00:55:52.563Z,15.77
2017-10-05T00:58:21.509Z,12.47
2017-10-05T01:00:49.850Z,10.07
2017-10-05T01:03:20.386Z,6.63
2017-10-05T01:05:48.065Z,11.63
2017-10-05T01:08:15.793Z,11.57
2017-10-05T01:10:44.199Z,12.50
2017-10-05T01:13:12.153Z,14.00
2017-10-05T01:15:40.060Z,11.90
2017-10-05T01:18:08.589Z,14.67
2017-10-05T01:20:37.356Z,12.13
2017-10-05T01:23:05.347Z,14.10
2017-10-05T01:25:33.730Z,9.13
2017-10-05T01:28:01.361Z,16.67
2017-10-05T01:30:29.933Z,10.17
2017-10-05T01:32:57.628Z,14.17
2017-10-05T01:35:25.168Z,9.40
2017-10-05T01:37:52.760Z,16.83
2017-10-05T01:40:21.409Z,15.97
2017-10-05T01:42:49.948Z,13.20
2017-10-05T01:45:17.612Z,12.17
2017-10-05T01:47:45.168Z,9.47
2017-10-05T01:50:12.694Z,23.40
2017-10-05T01:52:40.390Z,13.53
2017-10-05T01:55:10.365Z,10.43
2017-10-05T01:57:38.721Z,14.17
2017-10-05T02:00:07.097Z,12.57
2017-10-05T02:02:35.608Z,15.57
2017-10-05T02:05:03.305Z,12.83
2017-10-05T02:07:30.885Z,11.53
2017-10-05T02:09:58.429Z,11.07
2017-10-05T02:12:25.970Z,17.63
2017-10-05T02:14:53.637Z,10.40
2017-10-05T02:17:27.819Z,13.47
2017-10-05T02:20:05.277Z,9.63
2017-10-05T02:22:34.108Z,14.07
2017-10-05T02:25:01.624Z,19.83
2017-10-05T02:27:29.321Z,16.40
2017-10-05T02:29:57.013Z,11.13
2017-10-05T02:32:25.391Z,12.73
2017-10-05T02:34:52.914Z,18.50
2017-10-05T02:37:20.453Z,12.13
2017-10-05T02:39:48.854Z,9.37
2017-10-05T02:42:16.954Z,10.17
2017-10-05T02:44:44.788Z,19.97
2017-10-05T02:47:14.078Z,14.40
2017-10-05T02:49:42.065Z,13.13
2017-10-05T02:52:10.812Z,12.23
2017-10-05T02:54:39.006Z,22.13
2017-10-05T02:57:06.642Z,7.97
2017-10-05T02:59:34.456Z,14.50
2017-10-05T03:02:02.108Z,15.20
2017-10-05T03:04:30.391Z,10.53
2017-10-05T03:07:09.852Z,11.50
2017-10-05T03:09:38.329Z,12.93
2017-10-05T03:12:06.019Z,10.13
2017-10-05T03:14:34.389Z,14.07
2017-10-05T03:17:01.922Z,16.97
2017-10-05T03:19:29.657Z,12.73
2017-10-05T03:21:58.065Z,10.00
2017-10-05T03:24:25.606Z,15.20
2017-10-05T03:26:53.310Z,10.50
2017-10-05T03:29:21.136Z,11.50
2017-10-05T03:31:48.966Z,12.43
2017-10-05T03:34:16.726Z,8.73
2017-10-05T03:36:45.243Z,17.47
2017-10-05T03:39:12.797Z,14.50
2017-10-05T03:41:41.412Z,13.93
2017-10-05T03:44:10.929Z,17.93
2017-10-05T03:46:38.598Z,17.27
2017-10-05T03:49:06.137Z,13.50
2017-10-05T03:51:34.562Z,9.63
2017-10-05T03:54:02.347Z,13.50
2017-10-05T03:56:30.925Z,13.57
2017-10-05T03:58:59.272Z,9.10
2017-10-05T04:01:27.171Z,9.73
2017-10-05T04:03:55.768Z,7.57
2017-10-05T04:06:23.409Z,11.73
2017-10-05T04:08:51.971Z,15.50
2017-10-05T04:11:19.545Z,15.73
2017-10-05T04:13:47.204Z,12.03
2017-10-05T04:16:15.610Z,10.60
2017-10-05T04:18:43.348Z,16.00
2017-10-05T04:21:11.099Z,14.00
2017-10-05T04:23:38.698Z,9.57
2017-10-05T04:26:06.645Z,12.83
2017-10-05T04:28:34.223Z,15.47
2017-10-05T04:31:02.013Z,9.80
2017-10-05T04:33:29.732Z,12.90
2017-10-05T04:35:58.178Z,16.73
2017-10-05T04:38:25.798Z,15.43
2017-10-05T04:40:54.812Z,11.77
2017-10-05T04:43:23.189Z,14.13
2017-10-05T04:45:51.765Z,14.40
2017-10-05T04:48:19.537Z,10.60
2017-10-05T04:50:47.050Z,9.67
2017-10-05T04:53:14.749Z,12.07
2017-10-05T04:55:42.372Z,16.13
2017-10-05T04:58:09.927Z,16.50
2017-10-05T05:00:37.725Z,12.27
2017-10-05T05:03:06.668Z,11.27
2017-10-05T05:05:34.269Z,9.63
2017-10-05T05:08:06.521Z,18.57
2017-10-05T05:10:34.513Z,13.83
2017-10-05T05:13:02.135Z,13.50
2017-10-05T05:15:30.085Z,15.73
2017-10-05T05:17:57.646Z,18.17
2017-10-05T05:20:25.945Z,13.37
2017-10-05T05:22:54.909Z,18.30
2017-10-05T05:25:23.686Z,16.00
2017-10-05T05:27:51.210Z,12.23
2017-10-05T05:30:18.734Z,14.67
2017-10-05T05:32:47.062Z,17.93
2017-10-05T05:35:14.566Z,16.30
2017-10-05T05:37:42.076Z,8.33
2017-10-05T05:40:10.342Z,20.07
2017-10-05T05:42:38.677Z,13.63
2017-10-05T05:45:06.197Z,12.93
2017-10-05T05:47:33.709Z,18.87
2017-10-05T05:50:02.531Z,13.40
2017-10-05T05:52:30.988Z,20.10
2017-10-05T05:54:59.258Z,20.83
2017-10-05T05:57:27.545Z,14.57
2017-10-05T05:59:55.320Z,14.73
2017-10-05T06:02:22.937Z,14.43
2017-10-05T06:04:50.851Z,17.10
2017-10-05T06:07:18.558Z,15.07
2017-10-05T06:09:46.599Z,13.27
2017-10-05T06:12:14.192Z,25.03
2017-10-05T06:14:42.529Z,15.30
2017-10-05T06:17:11.135Z,14.67
2017-10-05T06:19:39.927Z,11.23
2017-10-05T06:22:08.427Z,15.20
2017-10-05T06:24:36.245Z,19.00
2017-10-05T06:27:03.954Z,19.70
2017-10-05T06:29:31.617Z,21.37
2017-10-05T06:31:59.426Z,19.93
2017-10-05T06:34:27.142Z,15.97
2017-10-05T06:36:58.386Z,26.70
2017-10-05T06:39:28.181Z,21.70
2017-10-05T06:41:57.321Z,18.63
2017-10-05T06:44:24.932Z,13.30
2017-10-05T06:46:52.822Z,20.30
2017-10-05T06:49:23.085Z,18.50
2017-10-05T06:51:52.938Z,19.93
2017-10-05T06:54:22.701Z,13.30
2017-10-05T06:56:50.313Z,15.20
2017-10-05T06:59:18.842Z,13.90
2017-10-05T07:01:50.385Z,17.77
2017-10-05T07:04:24.145Z,17.70
2017-10-05T07:06:51.959Z,15.70
2017-10-05T07:09:23.636Z,18.53
2017-10-05T07:12:01.556Z,23.13
2017-10-05T07:14:30.232Z,22.03
2017-10-05T07:16:58.639Z,17.00
2017-10-05T07:19:26.621Z,19.77
2017-10-05T07:21:55.285Z,20.30
2017-10-05T07:24:23.067Z,16.27
2017-10-05T07:26:52.411Z,17.57
2017-10-05T07:29:20.189Z,17.17
2017-10-05T07:31:47.988Z,22.47
2017-10-05T07:34:20.856Z,18.60
2017-10-05T07:36:49.608Z,15.57
2017-10-05T07:39:21.369Z,14.63
2017-10-05T07:41:49.623Z,20.70
2017-10-05T07:44:18.058Z,30.23
2017-10-05T07:46:46.304Z,19.70
2017-10-05T07:49:13.994Z,18.20
2017-10-05T07:51:41.854Z,23.60
2017-10-05T07:54:11.413Z,17.03
2017-10-05T07:56:39.307Z,29.77
2017-10-05T07:59:08.747Z,17.43
2017-10-05T08:01:38.562Z,23.80
2017-10-05T08:04:07.299Z,26.07
2017-10-05T08:06:35.383Z,19.33
2017-10-05T08:09:04.355Z,20.23
2017-10-05T08:11:32.271Z,24.60
2017-10-05T08:14:06.897Z,22.10
2017-10-05T08:16:43.389Z,18.80
2017-10-05T08:19:20.746Z,18.60
2017-10-05T08:21:49.092Z,15.57
2017-10-05T08:24:20.840Z,14.90
2017-10-05T08:26:53.210Z,15.00
2017-10-05T08:29:21.630Z,22.27
2017-10-05T08:31:50.438Z,17.83
2017-10-05T08:34:19.332Z,18.43
2017-10-05T08:36:50.861Z,13.60
2017-10-05T08:39:18.577Z,16.00
2017-10-05T08:41:46.528Z,17.73
2017-10-05T08:44:20.788Z,14.03
2017-10-05T08:46:48.667Z,9.87
2017-10-05T08:49:18.019Z,11.10
2017-10-05T08:51:45.786Z,10.63
2017-10-05T08:54:13.562Z,17.00
2017-10-05T08:56:54.010Z,10.53
2017-10-05T08:59:26.088Z,10.83
2017-10-05T09:01:54.582Z,10.93
2017-10-05T09:04:33.114Z,10.57
2017-10-05T09:07:01.321Z,9.47
2017-10-05T09:09:29.648Z,10.07
2017-10-05T09:12:00.537Z,10.43
2017-10-05T09:14:37.020Z,9.23
2017-10-05T09:17:06.133Z,10.70
2017-10-05T09:19:37.494Z,8.90
2017-10-05T09:22:05.890Z,10.03
2017-10-05T09:24:35.382Z,6.00
2017-10-05T09:27:04.722Z,8.07
2017-10-05T09:29:32.568Z,8.30
2017-10-05T09:32:11.481Z,8.63
2017-10-05T09:34:43.459Z,5.27
2017-10-05T09:37:11.013Z,7.70
2017-10-05T09:39:38.707Z,5.03
2017-10-05T09:42:06.330Z,11.43
2017-10-05T09:44:34.932Z,5.67
2017-10-05T09:47:07.508Z,6.03
2017-10-05T09:49:36.666Z,6.50
2017-10-05T09:52:04.991Z,5.20
2017-10-05T09:54:33.719Z,5.83
2017-10-05T09:57:02.418Z,9.77
2017-10-05T09:59:30.648Z,8.30
2017-10-05T10:01:58.449Z,6.27
2017-10-05T10:04:26.260Z,7.67
2017-10-05T10:06:54.780Z,4.60
2017-10-05T10:09:22.633Z,4.10
2017-10-05T10:11:50.616Z,4.63
2017-10-05T10:14:20.466Z,5.43
2017-10-05T10:16:48.524Z,4.53
2017-10-05T10:19:17.532Z,10.33
2017-10-05T10:21:48.584Z,9.07
2017-10-05T10:24:44.456Z,16.63
2017-10-05T10:27:27.259Z,16.50
2017-10-05T10:30:02.304Z,7.60
2017-10-05T10:32:30.560Z,20.23
2017-10-05T10:35:05.863Z,13.70
2017-10-05T10:37:33.997Z,17.80
2017-10-05T10:40:14.443Z,13.50
2017-10-05T10:42:49.249Z,15.23
2017-10-05T10:45:42.526Z,11.00
2017-10-05T10:51:14.642Z,14.70
2017-10-05T10:53:49.930Z,14.90
2017-10-05T10:56:19.321Z,22.00
2017-10-05T10:58:47.436Z,23.90
2017-10-05T11:01:29.488Z,22.40
2017-10-05T11:04:10.686Z,21.27
2017-10-05T11:09:24.484Z,19.10
2017-10-05T11:11:53.227Z,11.97
2017-10-05T11:14:21.844Z,12.90
2017-10-05T11:17:11.272Z,15.00
2017-10-05T11:19:38.840Z,10.53
2017-10-05T11:22:09.274Z,9.27
2017-10-05T11:24:37.748Z,10.67
2017-10-05T11:27:05.828Z,11.60
2017-10-05T11:29:34.921Z,13.20
2017-10-05T11:32:08.079Z,10.93
2017-10-05T11:34:40.148Z,11.37
2017-10-05T11:37:15.576Z,8.83
2017-10-05T11:39:43.321Z,11.80
2017-10-05T11:42:13.508Z,9.97
2017-10-05T11:44:44.704Z,10.33
2017-10-05T11:47:13.374Z,9.80
2017-10-05T11:49:42.377Z,15.27
2017-10-05T11:52:13.728Z,18.13
2017-10-05T11:54:42.622Z,8.50
2017-10-05T11:57:21.893Z,7.90
2017-10-05T11:59:49.553Z,7.37
2017-10-05T12:02:22.036Z,10.30
2017-10-05T12:04:51.002Z,10.03
2017-10-05T12:07:20.269Z,8.13
2017-10-05T12:09:50.044Z,9.33
2017-10-05T12:12:18.251Z,6.80
2017-10-05T12:15:02.896Z,6.57
2017-10-05T12:17:30.844Z,6.77
2017-10-05T12:19:58.639Z,12.57
2017-10-05T12:22:30.855Z,14.80
2017-10-05T12:24:59.287Z,11.77
2017-10-05T12:27:29.284Z,6.23
2017-10-05T12:29:57.228Z,7.80
2017-10-05T12:32:26.380Z,7.30
2017-10-05T12:34:55.517Z,7.13
2017-10-05T12:37:38.167Z,7.40
2017-10-05T12:40:17.382Z,6.50
2017-10-05T12:42:47.625Z,7.27
2017-10-05T12:45:15.949Z,11.13
2017-10-05T12:47:51.904Z,8.83
2017-10-05T12:50:23.894Z,7.07
2017-10-05T12:56:03.145Z,7.13
2017-10-05T12:58:31.336Z,7.67
2017-10-05T13:00:59.177Z,6.40
2017-10-05T13:03:31.494Z,13.00
2017-10-05T13:06:00.573Z,10.00
2017-10-05T13:20:18.283Z,8.77
2017-10-05T13:22:52.181Z,12.40
2017-10-05T13:25:19.906Z,7.93
2017-10-05T13:28:02.778Z,6.10
2017-10-05T13:30:31.649Z,6.93
2017-10-05T13:33:18.697Z,5.67
2017-10-05T13:38:46.527Z,2.27
2017-10-05T14:44:10.325Z,4.77
2017-10-05T14:46:48.488Z,5.47
2017-10-05T14:49:17.386Z,8.37
2017-10-05T14:51:45.086Z,3.07
2017-10-05T14:56:48.749Z,6.30
2017-10-05T14:59:19.786Z,6.67
2017-10-05T15:01:57.746Z,9.60
2017-10-05T15:18:09.778Z,9.30
2017-10-05T15:23:20.316Z,5.70
2017-10-05T15:25:48.366Z,6.20
2017-10-05T15:28:18.513Z,11.17
2017-10-05T15:33:52.350Z,9.73
2017-10-05T15:39:17.399Z,9.20
2017-10-05T15:44:46.031Z,11.33
2017-10-05T15:47:29.033Z,6.80
2017-10-05T15:50:41.804Z,5.90
2017-10-05T15:56:08.165Z,10.53
2017-10-05T16:02:01.914Z,10.77
2017-10-05T18:14:05.137Z,11.03
2017-10-05T19:08:28.320Z,10.00
2017-10-05T19:22:43.299Z,15.93
2017-10-05T19:28:04.515Z,13.03
2017-10-05T19:33:26.989Z,11.03
2017-10-05T19:39:27.884Z,9.77
2017-10-05T19:44:59.766Z,9.07
2017-10-05T19:47:43.915Z,14.57
2017-10-05T19:50:27.530Z,7.00
2017-10-05T19:53:06.687Z,13.53
2017-10-05T19:58:55.344Z,9.27
2017-10-05T20:01:27.116Z,11.70
2017-10-05T20:04:01.404Z,13.53
2017-10-05T20:06:29.736Z,11.63
2017-10-05T20:18:52.512Z,12.13
2017-10-05T20:27:28.469Z,19.37
2017-10-05T20:30:20.153Z,15.10
2017-10-05T20:35:53.674Z,10.07
2017-10-05T20:38:26.877Z,17.83
2017-10-05T20:40:56.614Z,15.77
2017-10-05T21:00:19.327Z,8.27
2017-10-05T21:02:47.208Z,13.47
2017-10-05T21:05:26.329Z,9.23
2017-10-05T21:10:49.137Z,7.73
2017-10-05T21:13:36.330Z,10.67
2017-10-05T21:19:17.508Z,4.50
2017-10-05T21:21:47.234Z,9.87
2017-10-05T21:24:19.049Z,5.40
2017-10-05T21:30:05.324Z,7.43
2017-10-05T21:32:46.381Z,3.20
2017-10-05T21:35:18.178Z,10.70
2017-10-05T21:40:43.970Z,8.13
2017-10-05T21:43:14.491Z,5.17
2017-10-05T21:49:10.360Z,9.00
2017-10-05T21:51:38.735Z,14.33
2017-10-05T21:57:18.924Z,6.00
2017-10-05T22:00:07.069Z,10.13
2017-10-05T22:02:36.094Z,7.10
2017-10-05T22:08:10.338Z,3.83
2017-10-05T22:10:38.079Z,10.27
2017-10-05T22:13:06.791Z,8.30
2017-10-05T22:18:54.928Z,9.90
2017-10-05T22:21:28.936Z,8.73
2017-10-05T22:27:16.159Z,6.00
2017-10-05T22:30:04.539Z,11.00
2017-10-05T22:33:54.650Z,9.47
2017-10-05T22:45:35.340Z,11.23
2017-10-05T23:10:58.113Z,7.87
2017-10-05T23:16:03.238Z,5.43
2017-10-05T23:18:38.907Z,9.53
2017-10-05T23:21:11.121Z,7.17
2017-10-05T23:23:58.662Z,12.27
2017-10-05T23:26:40.815Z,8.23
2017-10-05T23:29:10.051Z,5.67
2017-10-05T23:45:36.859Z,9.00
2017-10-05T23:51:29.890Z,7.90
2017-10-05T23:54:17.570Z,7.30
